createdAt,value
2022-09-07T00:00:36.487Z,17.83
2022-09-07T00:01:35.668Z,17.76
2022-09-07T00:02:35.650Z,17.72
2022-09-07T00:03:35.732Z,17.71
2022-09-07T00:04:35.609Z,17.68
2022-09-07T00:05:35.590Z,17.63
2022-09-07T00:06:35.594Z,17.53
2022-09-07T00:07:35.553Z,17.52
2022-09-07T00:08:35.531Z,17.49
2022-09-07T00:09:35.514Z,17.46
2022-09-07T00:10:35.527Z,17.46
2022-09-07T00:11:35.513Z,17.43
2022-09-07T00:12:35.481Z,17.41
2022-09-07T00:13:35.464Z,17.38
2022-09-07T00:14:35.507Z,17.41
2022-09-07T00:15:35.425Z,17.39
2022-09-07T00:16:35.496Z,17.41
2022-09-07T00:17:35.450Z,17.43
2022-09-07T00:18:35.417Z,17.46
2022-09-07T00:19:35.409Z,17.49
2022-09-07T00:20:35.384Z,17.49
2022-09-07T00:21:35.370Z,17.46
2022-09-07T00:22:35.401Z,17.46
2022-09-07T00:23:35.337Z,17.45
2022-09-07T00:24:35.331Z,17.41
2022-09-07T00:25:35.323Z,17.43
2022-09-07T00:26:35.308Z,17.41
2022-09-07T00:27:35.295Z,17.35
2022-09-07T00:28:36.994Z,17.35
2022-09-07T00:29:35.280Z,17.37
2022-09-07T00:30:35.257Z,17.35
2022-09-07T00:31:35.283Z,17.34
2022-09-07T00:32:35.232Z,17.32
2022-09-07T00:33:35.225Z,17.31
2022-09-07T00:34:35.225Z,17.27
2022-09-07T00:35:35.178Z,17.25
2022-09-07T00:36:35.189Z,17.27
2022-09-07T00:37:35.167Z,17.25
2022-09-07T00:38:35.154Z,17.24
2022-09-07T00:39:35.178Z,17.24
2022-09-07T00:40:35.112Z,17.24
2022-09-07T00:41:35.099Z,17.25
2022-09-07T00:42:35.080Z,17.25
2022-09-07T00:43:35.058Z,17.25
2022-09-07T00:44:35.123Z,17.24
2022-09-07T00:45:35.046Z,17.24
2022-09-07T00:46:35.121Z,17.20
2022-09-07T00:47:35.006Z,17.16
2022-09-07T00:48:35.024Z,17.14
2022-09-07T00:49:34.976Z,17.13
2022-09-07T00:50:34.998Z,17.12
2022-09-07T00:51:34.950Z,17.14
2022-09-07T00:52:34.961Z,17.14
2022-09-07T00:53:34.920Z,17.14
2022-09-07T00:54:34.930Z,17.16
2022-09-07T00:55:34.925Z,17.14
2022-09-07T00:56:34.903Z,17.14
2022-09-07T00:57:34.891Z,17.13
2022-09-07T00:58:34.906Z,17.09
2022-09-07T00:59:34.857Z,17.10
2022-09-07T01:00:34.852Z,17.06
2022-09-07T01:01:35.003Z,17.06
2022-09-07T01:02:35.017Z,17.04
2022-09-07T01:03:34.825Z,17.01
2022-09-07T01:04:34.800Z,16.98
2022-09-07T01:05:34.796Z,16.92
2022-09-07T01:06:34.810Z,16.94
2022-09-07T01:07:34.751Z,16.92
2022-09-07T01:08:34.742Z,16.91
2022-09-07T01:09:34.715Z,16.91
2022-09-07T01:10:34.728Z,16.88
2022-09-07T01:11:34.698Z,16.90
2022-09-07T01:12:34.738Z,16.90
2022-09-07T01:13:34.688Z,16.91
2022-09-07T01:14:34.693Z,16.91
2022-09-07T01:15:34.703Z,16.92
2022-09-07T01:16:34.643Z,16.91
2022-09-07T01:17:34.643Z,16.88
2022-09-07T01:18:34.608Z,16.90
2022-09-07T01:19:34.598Z,16.87
2022-09-07T01:20:34.578Z,16.83
2022-09-07T01:21:34.560Z,16.83
2022-09-07T01:22:34.552Z,16.82
2022-09-07T01:23:34.560Z,16.80
2022-09-07T01:24:34.531Z,16.79
2022-09-07T01:25:34.516Z,16.80
2022-09-07T01:26:34.524Z,16.82
2022-09-07T01:27:34.481Z,16.80
2022-09-07T01:28:34.551Z,16.80
2022-09-07T01:29:34.471Z,16.77
2022-09-07T01:30:34.459Z,16.73
2022-09-07T01:31:34.539Z,16.67
2022-09-07T01:32:34.427Z,16.65
2022-09-07T01:33:34.404Z,16.70
2022-09-07T01:34:34.440Z,16.67
2022-09-07T01:35:34.397Z,16.73
2022-09-07T01:36:34.380Z,16.69
2022-09-07T01:37:34.350Z,16.69
2022-09-07T01:38:34.358Z,16.65
2022-09-07T01:39:34.474Z,16.61
2022-09-07T01:40:34.334Z,16.59
2022-09-07T01:41:34.290Z,16.58
2022-09-07T01:42:34.296Z,16.57
2022-09-07T01:43:34.257Z,16.58
2022-09-07T01:44:34.286Z,16.62
2022-09-07T01:45:34.295Z,16.64
2022-09-07T01:46:34.356Z,16.67
2022-09-07T01:47:34.219Z,16.67
2022-09-07T01:48:34.207Z,16.64
2022-09-07T01:49:34.241Z,16.62
2022-09-07T01:50:34.234Z,16.58
2022-09-07T01:51:34.155Z,16.57
2022-09-07T01:52:34.152Z,16.57
2022-09-07T01:53:34.125Z,16.57
2022-09-07T01:54:34.126Z,16.55
2022-09-07T01:55:34.127Z,16.59
2022-09-07T01:56:34.124Z,16.59
2022-09-07T01:57:34.071Z,16.57
2022-09-07T01:58:34.090Z,16.52
2022-09-07T01:59:34.043Z,16.54
2022-09-07T02:00:34.057Z,16.51
2022-09-07T02:01:34.100Z,16.51
2022-09-07T02:02:34.052Z,16.55
2022-09-07T02:03:34.007Z,16.54
2022-09-07T02:04:33.989Z,16.57
2022-09-07T02:05:33.974Z,16.59
2022-09-07T02:06:33.974Z,16.59
2022-09-07T02:07:33.971Z,16.59
2022-09-07T02:08:33.954Z,16.62
2022-09-07T02:09:33.917Z,16.62
2022-09-07T02:10:33.952Z,16.65
2022-09-07T02:11:33.883Z,16.67
2022-09-07T02:12:33.942Z,16.67
2022-09-07T02:13:33.898Z,16.73
2022-09-07T02:14:33.894Z,16.76
2022-09-07T02:15:33.889Z,16.80
2022-09-07T02:16:33.832Z,16.88
2022-09-07T02:17:33.855Z,16.88
2022-09-07T02:18:33.869Z,16.90
2022-09-07T02:19:33.787Z,16.91
2022-09-07T02:20:33.814Z,16.94
2022-09-07T02:21:33.793Z,16.92
2022-09-07T02:22:33.757Z,16.97
2022-09-07T02:23:33.759Z,16.98
2022-09-07T02:24:33.775Z,17.02
2022-09-07T02:25:33.700Z,17.06
2022-09-07T02:26:33.711Z,17.09
2022-09-07T02:27:33.678Z,17.13
2022-09-07T02:28:33.671Z,17.13
2022-09-07T02:29:33.728Z,17.14
2022-09-07T02:30:33.662Z,17.16
2022-09-07T02:31:33.688Z,17.16
2022-09-07T02:32:33.631Z,17.14
2022-09-07T02:33:33.594Z,17.14
2022-09-07T02:34:33.645Z,17.13
2022-09-07T02:35:33.596Z,17.13
2022-09-07T02:36:33.585Z,17.12
2022-09-07T02:37:33.582Z,17.13
2022-09-07T02:38:33.546Z,17.10
2022-09-07T02:39:33.584Z,17.09
2022-09-07T02:40:33.553Z,17.06
2022-09-07T02:41:33.496Z,17.04
2022-09-07T02:42:33.485Z,16.98
2022-09-07T02:43:33.467Z,16.97
2022-09-07T02:44:33.474Z,16.92
2022-09-07T02:45:33.473Z,16.90
2022-09-07T02:46:33.551Z,16.84
2022-09-07T02:47:33.429Z,16.82
2022-09-07T02:48:33.425Z,16.83
2022-09-07T02:49:33.390Z,16.82
2022-09-07T02:50:33.380Z,16.80
2022-09-07T02:51:33.389Z,16.76
2022-09-07T02:52:33.339Z,16.72
2022-09-07T02:53:33.376Z,16.65
2022-09-07T02:54:33.339Z,16.62
2022-09-07T02:55:33.320Z,16.62
2022-09-07T02:56:33.322Z,16.57
2022-09-07T02:57:33.309Z,16.55
2022-09-07T02:58:33.280Z,16.49
2022-09-07T02:59:33.271Z,16.51
2022-09-07T03:00:33.240Z,16.49
2022-09-07T03:01:33.310Z,16.47
2022-09-07T03:02:33.298Z,16.51
2022-09-07T03:03:33.218Z,16.52
2022-09-07T03:04:33.190Z,16.55
2022-09-07T03:05:33.226Z,16.49
2022-09-07T03:06:33.168Z,16.46
2022-09-07T03:07:35.837Z,16.43
2022-09-07T03:08:33.133Z,16.44
2022-09-07T03:09:33.136Z,16.47
2022-09-07T03:10:33.110Z,16.46
2022-09-07T03:11:33.100Z,16.42
2022-09-07T03:12:33.092Z,16.40
2022-09-07T03:13:33.140Z,16.37
2022-09-07T03:14:33.047Z,16.36
2022-09-07T03:15:33.138Z,16.39
2022-09-07T03:16:33.030Z,16.39
2022-09-07T03:17:33.051Z,16.37
2022-09-07T03:18:33.038Z,16.36
2022-09-07T03:19:33.001Z,16.34
2022-09-07T03:20:32.965Z,16.32
2022-09-07T03:21:32.976Z,16.33
2022-09-07T03:22:32.947Z,16.29
2022-09-07T03:23:32.965Z,16.28
2022-09-07T03:24:32.941Z,16.24
2022-09-07T03:25:32.931Z,16.21
2022-09-07T03:26:32.891Z,16.14
2022-09-07T03:27:32.909Z,16.10
2022-09-07T03:28:32.864Z,16.06
2022-09-07T03:29:32.932Z,16.03
2022-09-07T03:30:32.876Z,16.02
2022-09-07T03:31:32.838Z,15.96
2022-09-07T03:32:32.846Z,15.95
2022-09-07T03:33:32.807Z,15.87
2022-09-07T03:34:32.778Z,15.88
2022-09-07T03:35:32.810Z,15.98
2022-09-07T03:36:32.757Z,15.98
2022-09-07T03:37:32.776Z,15.95
2022-09-07T03:38:32.874Z,15.93
2022-09-07T03:39:32.767Z,15.93
2022-09-07T03:40:32.733Z,15.96
2022-09-07T03:41:32.694Z,15.96
2022-09-07T03:42:32.665Z,16.00
2022-09-07T03:43:32.680Z,16.00
2022-09-07T03:44:32.658Z,15.99
2022-09-07T03:45:32.646Z,15.93
2022-09-07T03:46:32.763Z,15.99
2022-09-07T03:47:32.648Z,16.05
2022-09-07T03:48:32.768Z,16.05
2022-09-07T03:49:32.597Z,16.06
2022-09-07T03:50:32.607Z,16.05
2022-09-07T03:51:32.595Z,16.05
2022-09-07T03:52:32.554Z,16.09
2022-09-07T03:53:32.550Z,16.13
2022-09-07T03:54:34.221Z,16.17
2022-09-07T03:55:32.527Z,16.18
2022-09-07T03:56:32.491Z,16.22
2022-09-07T03:57:32.522Z,16.18
2022-09-07T03:58:32.684Z,16.18
2022-09-07T03:59:32.504Z,16.17
2022-09-07T04:00:32.437Z,16.17
2022-09-07T04:01:32.498Z,16.13
2022-09-07T04:02:32.515Z,16.09
2022-09-07T04:03:32.399Z,16.08
2022-09-07T04:04:32.389Z,16.10
2022-09-07T04:05:32.382Z,16.17
2022-09-07T04:06:32.362Z,16.18
2022-09-07T04:07:32.364Z,16.22
2022-09-07T04:08:32.584Z,16.26
2022-09-07T04:09:32.355Z,16.25
2022-09-07T04:10:32.307Z,16.25
2022-09-07T04:11:32.304Z,16.25
2022-09-07T04:12:32.290Z,16.26
2022-09-07T04:13:32.334Z,16.26
2022-09-07T04:14:32.315Z,16.25
2022-09-07T04:15:32.266Z,16.25
2022-09-07T04:16:32.265Z,16.24
2022-09-07T04:17:32.235Z,16.22
2022-09-07T04:18:32.361Z,16.25
2022-09-07T04:19:32.230Z,16.18
2022-09-07T04:20:32.166Z,16.18
2022-09-07T04:21:32.167Z,16.18
2022-09-07T04:22:32.156Z,16.18
2022-09-07T04:23:32.146Z,16.24
2022-09-07T04:24:32.154Z,16.25
2022-09-07T04:25:32.111Z,16.25
2022-09-07T04:26:32.096Z,16.25
2022-09-07T04:27:32.048Z,16.25
2022-09-07T04:28:32.139Z,16.24
2022-09-07T04:29:32.008Z,16.21
2022-09-07T04:30:32.042Z,16.18
2022-09-07T04:31:31.973Z,16.17
2022-09-07T04:32:31.960Z,16.13
2022-09-07T04:33:31.965Z,16.08
2022-09-07T04:34:31.921Z,16.08
2022-09-07T04:35:31.984Z,16.09
2022-09-07T04:36:31.911Z,16.14
2022-09-07T04:37:31.903Z,16.09
2022-09-07T04:38:32.052Z,16.10
2022-09-07T04:39:31.910Z,16.08
2022-09-07T04:40:31.856Z,16.13
2022-09-07T04:41:31.869Z,16.10
2022-09-07T04:42:31.816Z,16.14
2022-09-07T04:43:31.946Z,16.16
2022-09-07T04:44:31.798Z,16.16
2022-09-07T04:45:31.790Z,16.16
2022-09-07T04:46:31.799Z,16.14
2022-09-07T04:47:31.765Z,16.22
2022-09-07T04:48:31.951Z,16.21
2022-09-07T04:49:31.740Z,16.17
2022-09-07T04:50:31.707Z,16.21
2022-09-07T04:51:31.726Z,16.21
2022-09-07T04:52:31.723Z,16.17
2022-09-07T04:53:31.708Z,16.17
2022-09-07T04:54:31.652Z,16.16
2022-09-07T04:55:31.651Z,16.13
2022-09-07T04:56:31.624Z,16.13
2022-09-07T04:57:31.663Z,16.10
2022-09-07T04:58:31.757Z,16.10
2022-09-07T04:59:31.602Z,16.10
2022-09-07T05:00:31.576Z,16.09
2022-09-07T05:01:31.653Z,16.06
2022-09-07T05:02:31.603Z,16.05
2022-09-07T05:03:31.593Z,16.05
2022-09-07T05:04:31.563Z,16.08
2022-09-07T05:05:31.529Z,16.02
2022-09-07T05:06:31.495Z,15.98
2022-09-07T05:07:31.506Z,15.96
2022-09-07T05:08:31.625Z,15.95
2022-09-07T05:09:31.497Z,15.96
2022-09-07T05:10:31.451Z,15.93
2022-09-07T05:11:31.506Z,15.93
2022-09-07T05:12:31.466Z,15.93
2022-09-07T05:13:31.459Z,15.93
2022-09-07T05:14:31.442Z,15.95
2022-09-07T05:15:31.412Z,15.95
2022-09-07T05:16:31.525Z,15.91
2022-09-07T05:17:31.390Z,15.96
2022-09-07T05:18:31.501Z,15.98
2022-09-07T05:19:31.376Z,15.98
2022-09-07T05:20:31.324Z,15.96
2022-09-07T05:21:31.322Z,15.98
2022-09-07T05:22:31.305Z,15.99
2022-09-07T05:23:31.287Z,16.00
2022-09-07T05:24:31.268Z,16.00
2022-09-07T05:25:31.339Z,16.05
2022-09-07T05:26:31.230Z,16.08
2022-09-07T05:27:31.231Z,16.06
2022-09-07T05:28:31.499Z,16.05
2022-09-07T05:31:31.181Z,16.02
2022-09-07T05:32:31.151Z,16.00
2022-09-07T05:34:31.512Z,15.98
2022-09-07T05:35:31.167Z,15.96
2022-09-07T05:36:31.103Z,15.98
2022-09-07T05:37:31.099Z,15.99
2022-09-07T05:38:31.274Z,15.99
2022-09-07T05:39:31.148Z,16.00
2022-09-07T05:40:31.035Z,16.05
2022-09-07T05:41:31.076Z,16.08
2022-09-07T05:42:31.020Z,16.08
2022-09-07T05:43:31.012Z,16.10
2022-09-07T05:44:46.478Z,16.13
2022-09-07T05:45:31.013Z,16.16
2022-09-07T05:46:31.008Z,16.17
2022-09-07T05:47:30.965Z,16.21
2022-09-07T05:48:31.050Z,16.22
2022-09-07T05:49:30.931Z,16.25
2022-09-07T05:50:30.912Z,16.29
2022-09-07T05:51:30.910Z,16.33
2022-09-07T05:52:30.908Z,16.34
2022-09-07T05:53:30.880Z,16.37
2022-09-07T05:54:30.864Z,16.37
2022-09-07T05:55:30.928Z,16.37
2022-09-07T05:56:30.834Z,16.42
2022-09-07T05:57:30.865Z,16.40
2022-09-07T05:58:30.920Z,16.44
2022-09-07T05:59:30.806Z,16.42
2022-09-07T06:00:30.789Z,16.46
2022-09-07T06:01:30.777Z,16.47
2022-09-07T06:02:30.868Z,16.47
2022-09-07T06:03:30.850Z,16.52
2022-09-07T06:04:30.733Z,16.57
2022-09-07T06:05:30.731Z,16.55
2022-09-07T06:06:30.699Z,16.61
2022-09-07T06:07:30.707Z,16.61
2022-09-07T06:08:30.962Z,16.64
2022-09-07T06:09:30.897Z,16.67
2022-09-07T06:10:46.136Z,16.72
2022-09-07T06:11:30.668Z,16.73
2022-09-07T06:12:30.622Z,16.73
2022-09-07T06:13:30.914Z,16.77
2022-09-07T06:14:30.621Z,16.80
2022-09-07T06:15:30.599Z,16.84
2022-09-07T06:16:30.611Z,16.84
2022-09-07T06:17:30.582Z,16.87
2022-09-07T06:18:30.538Z,16.87
2022-09-07T06:19:30.602Z,16.87
2022-09-07T06:20:30.525Z,16.90
2022-09-07T06:21:30.516Z,16.91
2022-09-07T06:22:31.300Z,16.94
2022-09-07T06:23:30.749Z,16.94
2022-09-07T06:24:30.495Z,16.95
2022-09-07T06:25:30.565Z,16.97
2022-09-07T06:26:30.440Z,16.97
2022-09-07T06:27:30.478Z,17.01
2022-09-07T06:28:30.415Z,17.02
2022-09-07T06:29:30.407Z,17.02
2022-09-07T06:30:30.422Z,17.06
2022-09-07T06:31:30.725Z,17.02
2022-09-07T06:32:46.075Z,17.04
2022-09-07T06:33:30.351Z,17.06
2022-09-07T06:34:30.321Z,17.04
2022-09-07T06:35:30.361Z,17.02
2022-09-07T06:36:30.296Z,17.04
2022-09-07T06:37:30.298Z,17.07
2022-09-07T06:38:31.960Z,17.04
2022-09-07T06:39:30.317Z,16.99
2022-09-07T06:40:30.238Z,16.99
2022-09-07T06:42:30.225Z,17.04
2022-09-07T06:43:30.404Z,17.04
2022-09-07T06:44:30.216Z,16.98
2022-09-07T06:45:30.274Z,16.98
2022-09-07T06:47:30.165Z,17.07
2022-09-07T06:48:30.255Z,17.02
2022-09-07T06:49:30.171Z,17.07
2022-09-07T06:50:30.118Z,17.07
2022-09-07T06:51:30.107Z,17.02
2022-09-07T06:53:36.749Z,17.10
2022-09-07T06:55:30.082Z,17.19
2022-09-07T06:56:30.048Z,17.20
2022-09-07T06:57:30.071Z,17.16
2022-09-07T06:58:30.251Z,17.19
2022-09-07T06:59:30.016Z,17.19
2022-09-07T07:00:29.977Z,17.25
2022-09-07T07:01:30.057Z,17.27
2022-09-07T07:02:29.998Z,17.27
2022-09-07T07:03:30.067Z,17.25
2022-09-07T07:04:29.936Z,17.34
2022-09-07T07:05:29.998Z,17.34
2022-09-07T07:06:29.910Z,17.32
2022-09-07T07:07:29.895Z,17.22
2022-09-07T07:08:30.074Z,17.24
2022-09-07T07:09:29.864Z,17.25
2022-09-07T07:10:29.860Z,17.28
2022-09-07T07:11:29.842Z,17.27
2022-09-07T07:13:46.444Z,17.24
2022-09-07T07:14:47.379Z,17.30
2022-09-07T07:15:47.384Z,17.37
2022-09-07T07:16:47.393Z,17.39
2022-09-07T07:17:53.185Z,17.52
2022-09-07T07:18:47.381Z,17.54
2022-09-07T07:19:47.327Z,17.66
2022-09-07T07:20:47.390Z,17.84
2022-09-07T07:22:47.321Z,17.87
2022-09-07T07:23:47.361Z,17.96
2022-09-07T07:24:47.286Z,17.96
2022-09-07T07:25:47.277Z,17.96
2022-09-07T07:26:47.228Z,18.03
2022-09-07T07:27:47.296Z,18.15
2022-09-07T07:29:03.671Z,18.24
2022-09-07T07:29:47.231Z,18.45
2022-09-07T07:30:47.226Z,18.68
2022-09-07T07:31:47.359Z,18.76
2022-09-07T07:32:47.171Z,18.86
2022-09-07T07:33:47.187Z,18.97
2022-09-07T07:34:47.220Z,19.15
2022-09-07T07:35:47.160Z,19.15
2022-09-07T07:36:47.086Z,19.15
2022-09-07T07:37:47.148Z,18.94
2022-09-07T07:39:03.001Z,18.66
2022-09-07T07:41:57.431Z,18.36
2022-09-07T07:42:47.027Z,18.28
2022-09-07T07:43:47.020Z,18.42
2022-09-07T07:44:47.105Z,18.68
2022-09-07T07:46:47.173Z,18.78
2022-09-07T07:47:46.965Z,18.83
2022-09-07T07:48:47.066Z,18.82
2022-09-07T07:49:47.191Z,18.76
2022-09-07T07:50:46.912Z,18.76
2022-09-07T07:52:50.574Z,18.93
2022-09-07T07:53:46.880Z,19.17
2022-09-07T07:54:46.856Z,19.12
2022-09-07T07:55:46.876Z,18.97
2022-09-07T07:56:46.821Z,18.78
2022-09-07T07:57:46.856Z,18.78
2022-09-07T07:58:46.819Z,18.67
2022-09-07T07:59:46.793Z,18.68
2022-09-07T08:00:55.505Z,18.66
2022-09-07T08:01:46.892Z,18.64
2022-09-07T08:02:46.805Z,18.63
2022-09-07T08:03:46.747Z,18.58
2022-09-07T08:04:46.732Z,18.63
2022-09-07T08:05:46.717Z,18.78
2022-09-07T08:06:46.684Z,18.97
2022-09-07T08:07:46.691Z,19.04
2022-09-07T08:08:46.709Z,19.19
2022-09-07T08:09:46.664Z,19.12
2022-09-07T08:10:46.665Z,19.00
2022-09-07T08:11:46.665Z,18.93
2022-09-07T08:12:46.635Z,18.91
2022-09-07T08:13:46.649Z,19.00
2022-09-07T08:14:46.592Z,18.98
2022-09-07T08:15:46.917Z,18.96
2022-09-07T08:16:46.705Z,18.93
2022-09-07T08:17:46.572Z,18.88
2022-09-07T08:18:47.198Z,19.19
2022-09-07T08:19:46.565Z,19.23
2022-09-07T08:20:46.520Z,19.24
2022-09-07T08:21:46.526Z,19.17
2022-09-07T08:22:46.479Z,19.27
2022-09-07T08:23:46.497Z,19.34
2022-09-07T08:24:46.475Z,19.26
2022-09-07T08:25:46.470Z,19.12
2022-09-07T08:26:46.471Z,19.08
2022-09-07T08:27:46.421Z,19.19
2022-09-07T08:28:46.399Z,19.27
2022-09-07T08:29:46.445Z,19.41
2022-09-07T08:30:46.416Z,19.47
2022-09-07T08:31:46.453Z,19.38
2022-09-07T08:32:46.353Z,19.27
2022-09-07T08:33:46.359Z,19.34
2022-09-07T08:34:46.321Z,19.30
2022-09-07T08:35:46.397Z,19.34
2022-09-07T08:36:46.289Z,19.42
2022-09-07T08:37:46.304Z,19.42
2022-09-07T08:38:46.282Z,19.39
2022-09-07T08:39:46.369Z,19.35
2022-09-07T08:40:46.288Z,19.45
2022-09-07T08:41:46.280Z,19.62
2022-09-07T08:42:46.230Z,19.57
2022-09-07T08:43:49.119Z,19.63
2022-09-07T08:44:46.215Z,19.64
2022-09-07T08:45:46.164Z,19.86
2022-09-07T08:46:46.339Z,19.90
2022-09-07T08:47:46.145Z,19.94
2022-09-07T08:48:46.165Z,19.89
2022-09-07T08:49:46.149Z,19.60
2022-09-07T08:50:46.160Z,19.49
2022-09-07T08:51:46.123Z,19.39
2022-09-07T08:52:46.156Z,19.75
2022-09-07T08:53:46.079Z,19.89
2022-09-07T08:54:46.079Z,19.94
2022-09-07T08:55:46.037Z,20.12
2022-09-07T08:57:46.058Z,20.41
2022-09-07T08:58:49.191Z,20.56
2022-09-07T08:59:46.003Z,20.49
2022-09-07T09:00:45.992Z,20.58
2022-09-07T09:02:26.979Z,20.74
2022-09-07T09:02:46.450Z,20.93
2022-09-07T09:05:46.066Z,20.90
2022-09-07T09:06:46.055Z,21.00
2022-09-07T09:07:45.891Z,21.05
2022-09-07T09:08:45.931Z,21.08
2022-09-07T09:09:45.943Z,21.04
2022-09-07T09:10:45.882Z,21.05
2022-09-07T09:11:45.830Z,21.01
2022-09-07T09:12:45.850Z,20.83
2022-09-07T09:13:45.797Z,20.90
2022-09-07T09:14:45.844Z,20.97
2022-09-07T09:15:45.812Z,21.10
2022-09-07T09:16:45.782Z,21.10
2022-09-07T09:17:45.740Z,21.16
2022-09-07T09:18:45.743Z,21.16
2022-09-07T09:19:45.776Z,21.04
2022-09-07T09:20:45.717Z,20.92
2022-09-07T09:21:45.690Z,20.71
2022-09-07T09:22:45.695Z,20.83
2022-09-07T09:23:45.800Z,20.65
2022-09-07T09:24:45.684Z,20.53
2022-09-07T09:25:45.666Z,20.48
2022-09-07T09:26:45.706Z,20.61
2022-09-07T09:27:45.658Z,20.70
2022-09-07T09:28:45.638Z,20.55
2022-09-07T09:29:45.591Z,20.39
2022-09-07T09:30:45.625Z,20.70
2022-09-07T09:31:45.727Z,20.92
2022-09-07T09:32:45.567Z,21.01
2022-09-07T09:33:45.557Z,20.97
2022-09-07T09:34:45.612Z,21.19
2022-09-07T09:35:45.510Z,21.08
2022-09-07T09:36:45.565Z,21.22
2022-09-07T09:37:45.547Z,21.28
2022-09-07T09:38:45.484Z,21.11
2022-09-07T09:39:45.543Z,21.00
2022-09-07T09:40:45.462Z,21.03
2022-09-07T09:41:45.537Z,20.95
2022-09-07T09:42:45.426Z,20.93
2022-09-07T09:43:45.428Z,20.88
2022-09-07T09:44:45.411Z,20.95
2022-09-07T09:46:45.740Z,20.97
2022-09-07T09:47:45.428Z,21.01
2022-09-07T09:48:45.354Z,20.88
2022-09-07T09:49:45.323Z,20.83
2022-09-07T09:52:51.438Z,20.97
2022-09-07T09:53:45.330Z,21.10
2022-09-07T09:54:45.281Z,21.60
2022-09-07T09:55:45.242Z,21.94
2022-09-07T09:56:45.248Z,22.22
2022-09-07T09:59:04.834Z,21.88
2022-09-07T10:00:05.226Z,21.47
2022-09-07T10:04:45.163Z,21.56
2022-09-07T10:05:45.113Z,21.66
2022-09-07T10:06:45.187Z,21.93
2022-09-07T10:07:45.101Z,21.75
2022-09-07T10:08:45.135Z,21.40
2022-09-07T10:09:45.130Z,21.34
2022-09-07T10:10:45.077Z,21.37
2022-09-07T10:12:45.039Z,21.23
2022-09-07T10:13:45.020Z,21.01
2022-09-07T10:14:45.187Z,21.18
2022-09-07T10:15:45.020Z,21.29
2022-09-07T10:16:45.056Z,21.23
2022-09-07T10:17:44.961Z,21.00
2022-09-07T10:18:44.975Z,20.83
2022-09-07T10:19:45.005Z,20.90
2022-09-07T10:20:44.936Z,21.11
2022-09-07T10:21:44.918Z,21.23
2022-09-07T10:22:47.522Z,21.47
2022-09-07T10:23:44.884Z,21.38
2022-09-07T10:24:44.891Z,21.30
2022-09-07T10:25:44.941Z,21.20
2022-09-07T10:26:44.855Z,21.20
2022-09-07T10:27:44.819Z,21.41
2022-09-07T10:29:44.813Z,21.10
2022-09-07T10:30:44.865Z,21.18
2022-09-07T10:31:44.884Z,20.98
2022-09-07T10:32:44.771Z,21.07
2022-09-07T10:34:25.851Z,21.30
2022-09-07T10:34:44.750Z,21.65
2022-09-07T10:35:44.777Z,21.77
2022-09-07T10:36:44.737Z,21.82
2022-09-07T10:37:44.698Z,21.81
2022-09-07T10:38:44.708Z,22.03
2022-09-07T10:39:44.703Z,22.25
2022-09-07T10:40:44.686Z,22.46
2022-09-07T10:41:44.721Z,22.56
2022-09-07T10:43:20.632Z,22.49
2022-09-07T10:43:44.625Z,22.53
2022-09-07T10:44:44.621Z,22.66
2022-09-07T10:45:44.589Z,22.98
2022-09-07T10:47:00.134Z,22.99
2022-09-07T10:47:44.578Z,23.08
2022-09-07T10:48:44.581Z,23.03
2022-09-07T10:50:21.821Z,23.23
2022-09-07T10:50:44.551Z,23.49
2022-09-07T10:51:44.523Z,23.54
2022-09-07T10:52:44.541Z,23.52
2022-09-07T10:53:44.669Z,23.37
2022-09-07T10:54:44.602Z,23.37
2022-09-07T10:55:44.448Z,23.42
2022-09-07T10:56:44.460Z,23.29
2022-09-07T10:57:48.347Z,22.93
2022-09-07T11:00:44.462Z,22.33
2022-09-07T11:01:44.440Z,22.21
2022-09-07T11:03:24.888Z,22.33
2022-09-07T11:03:44.999Z,22.48
2022-09-07T11:04:44.393Z,22.44
2022-09-07T11:05:44.326Z,22.38
2022-09-07T11:06:44.355Z,22.44
2022-09-07T11:07:44.318Z,22.58
2022-09-07T11:09:44.286Z,22.58
2022-09-07T11:10:44.285Z,22.53
2022-09-07T11:12:44.251Z,22.61
2022-09-07T11:14:09.016Z,22.64
2022-09-07T11:14:44.279Z,22.68
2022-09-07T11:15:44.244Z,22.70
2022-09-07T11:16:51.725Z,22.67
2022-09-07T11:17:44.194Z,22.68
2022-09-07T11:18:44.177Z,22.64
2022-09-07T11:19:44.201Z,22.62
2022-09-07T11:20:44.130Z,22.62
2022-09-07T11:21:59.522Z,22.73
2022-09-07T11:22:44.147Z,22.55
2022-09-07T11:23:44.099Z,22.61
2022-09-07T11:24:44.323Z,22.59
2022-09-07T11:25:46.670Z,22.49
2022-09-07T11:26:44.073Z,22.44
2022-09-07T11:27:44.040Z,22.44
2022-09-07T11:28:44.367Z,22.46
2022-09-07T11:29:44.036Z,22.48
2022-09-07T11:30:44.105Z,22.27
2022-09-07T11:31:43.979Z,22.27
2022-09-07T11:32:43.986Z,22.23
2022-09-07T11:34:23.763Z,22.28
2022-09-07T11:34:45.160Z,22.31
2022-09-07T11:35:43.993Z,22.48
2022-09-07T11:36:43.927Z,22.56
2022-09-07T11:37:43.903Z,22.59
2022-09-07T11:38:43.970Z,22.53
2022-09-07T11:39:43.923Z,22.53
2022-09-07T11:40:43.873Z,22.51
2022-09-07T11:41:43.945Z,22.31
2022-09-07T11:42:44.275Z,22.52
2022-09-07T11:43:43.812Z,22.83
2022-09-07T11:44:43.841Z,22.99
2022-09-07T11:45:43.819Z,23.23
2022-09-07T11:46:43.925Z,23.13
2022-09-07T11:47:43.770Z,23.18
2022-09-07T11:48:43.784Z,23.15
2022-09-07T11:49:47.664Z,23.23
2022-09-07T11:50:43.793Z,23.44
2022-09-07T11:51:43.712Z,23.64
2022-09-07T11:52:43.741Z,23.56
2022-09-07T11:53:43.727Z,23.48
2022-09-07T11:54:43.708Z,23.69
2022-09-07T11:55:43.664Z,23.64
2022-09-07T11:56:45.676Z,23.67
2022-09-07T11:57:43.661Z,23.60
2022-09-07T11:58:43.665Z,23.56
2022-09-07T11:59:43.608Z,23.33
2022-09-07T12:00:43.641Z,23.13
2022-09-07T12:01:43.595Z,23.07
2022-09-07T12:02:58.981Z,23.03
2022-09-07T12:03:43.732Z,23.06
2022-09-07T12:04:43.614Z,22.85
2022-09-07T12:05:43.543Z,22.80
2022-09-07T12:06:43.533Z,22.80
2022-09-07T12:07:43.533Z,22.73
2022-09-07T12:08:43.577Z,22.85
2022-09-07T12:09:43.494Z,23.11
2022-09-07T12:10:43.474Z,23.28
2022-09-07T12:11:43.468Z,23.34
2022-09-07T12:12:43.451Z,23.17
2022-09-07T12:13:43.426Z,23.11
2022-09-07T12:14:43.484Z,23.14
2022-09-07T12:15:43.413Z,23.31
2022-09-07T12:16:43.414Z,23.15
2022-09-07T12:17:43.387Z,23.04
2022-09-07T12:18:43.381Z,23.22
2022-09-07T12:19:43.376Z,23.51
2022-09-07T12:20:43.341Z,23.60
2022-09-07T12:21:43.328Z,24.00
2022-09-07T12:22:43.356Z,24.38
2022-09-07T12:23:43.294Z,24.48
2022-09-07T12:24:43.337Z,24.56
2022-09-07T12:25:43.298Z,24.63
2022-09-07T12:26:43.281Z,24.58
2022-09-07T12:27:43.267Z,24.40
2022-09-07T12:28:43.256Z,24.03
2022-09-07T12:29:46.255Z,23.78
2022-09-07T12:30:43.320Z,23.66
2022-09-07T12:31:57.325Z,23.56
2022-09-07T12:32:59.013Z,23.64
2022-09-07T12:33:43.212Z,23.69
2022-09-07T12:34:43.159Z,23.29
2022-09-07T12:35:43.139Z,23.23
2022-09-07T12:36:43.343Z,23.22
2022-09-07T12:37:43.146Z,23.18
2022-09-07T12:38:43.128Z,23.26
2022-09-07T12:39:43.160Z,23.26
2022-09-07T12:40:43.114Z,23.41
2022-09-07T12:41:43.415Z,23.52
2022-09-07T12:42:43.063Z,23.54
2022-09-07T12:43:43.057Z,23.71
2022-09-07T12:44:43.037Z,23.89
2022-09-07T12:45:43.030Z,24.13
2022-09-07T12:46:43.089Z,24.22
2022-09-07T12:47:43.047Z,24.44
2022-09-07T12:48:42.996Z,24.65
2022-09-07T12:49:42.951Z,24.56
2022-09-07T12:50:42.982Z,24.48
2022-09-07T12:52:42.966Z,24.63
2022-09-07T12:53:42.917Z,24.62
2022-09-07T12:54:42.917Z,24.52
2022-09-07T12:56:43.173Z,24.47
2022-09-07T12:57:42.860Z,24.58
2022-09-07T12:58:42.920Z,24.44
2022-09-07T12:59:42.900Z,24.40
2022-09-07T13:00:42.820Z,24.08
2022-09-07T13:01:42.901Z,23.96
2022-09-07T13:02:42.895Z,23.89
2022-09-07T13:03:51.331Z,23.69
2022-09-07T13:04:42.759Z,23.52
2022-09-07T13:05:42.781Z,23.49
2022-09-07T13:07:42.757Z,23.64
2022-09-07T13:08:42.723Z,23.70
2022-09-07T13:09:42.735Z,23.60
2022-09-07T13:10:42.689Z,23.63
2022-09-07T13:11:42.701Z,23.55
2022-09-07T13:12:58.171Z,23.55
2022-09-07T13:14:43.740Z,23.39
2022-09-07T13:15:42.668Z,23.31
2022-09-07T13:17:42.661Z,23.26
2022-09-07T13:18:42.576Z,23.31
2022-09-07T13:19:42.582Z,23.34
2022-09-07T13:20:42.590Z,23.33
2022-09-07T13:21:42.562Z,23.31
2022-09-07T13:22:42.518Z,23.37
2022-09-07T13:23:42.530Z,23.42
2022-09-07T13:24:46.953Z,23.48
2022-09-07T13:25:42.539Z,23.42
2022-09-07T13:26:42.474Z,23.55
2022-09-07T13:27:43.375Z,23.67